Time;durP1;ratioP1;P1;durP2;ratioP2;P2;SDS_P1;SDS_P2;PMS_P1;PMS_P2;Temp;Humidity;BMP_temperature;BMP_pressure;BME280_temperature;BME280_humidity;BME280_pressure;Samples;Min_cycle;Max_cycle;Signal;HPM_P1;HPM_P2
2022/12/28 00:02:21;;;;;;;0.30;0.30;;;;;;;;;;5054815;28;20140;-89
2022/12/28 00:04:50;;;;;;;0.20;0.20;;;;;;;;;;5056543;28;20045;-89
2022/12/28 00:07:18;;;;;;;0.70;0.70;;;;;;;;;;5062291;28;20413;-88
2022/12/28 00:09:47;;;;;;;0.40;0.40;;;;;;;;;;5053251;28;20703;-88
2022/12/28 00:12:16;;;;;;;1.10;0.93;;;;;;;;;;5052908;28;20069;-89
2022/12/28 00:14:45;;;;;;;0.60;0.60;;;;;;;;;;5052588;28;20599;-88
2022/12/28 00:17:13;;;;;;;1.85;0.80;;;;;;;;;;5054140;28;20049;-88
2022/12/28 00:19:42;;;;;;;0.70;0.60;;;;;;;;;;5048275;28;20048;-88
2022/12/28 00:22:10;;;;;;;0.95;0.88;;;;;;;;;;5051300;28;20151;-88
2022/12/28 00:24:38;;;;;;;0.40;0.40;;;;;;;;;;5048134;28;20490;-88
2022/12/28 00:27:07;;;;;;;0.57;0.50;;;;;;;;;;5052495;28;20057;-90
2022/12/28 00:29:36;;;;;;;1.73;1.63;;;;;;;;;;5049862;28;20067;-88
2022/12/28 00:32:05;;;;;;;0.80;0.70;;;;;;;;;;5051228;28;20344;-89
2022/12/28 00:34:33;;;;;;;0.70;0.60;;;;;;;;;;5050156;28;20049;-89
2022/12/28 00:37:02;;;;;;;0.30;0.30;;;;;;;;;;5053991;28;20115;-88
2022/12/28 00:39:40;;;;;;;0.65;0.65;;;;;;;;;;5050499;28;20613;-88
2022/12/28 00:42:08;;;;;;;0.75;0.70;;;;;;;;;;5044999;28;20152;-88
2022/12/28 00:44:38;;;;;;;0.57;0.57;;;;;;;;;;5049134;28;20150;-88
2022/12/28 00:47:06;;;;;;;0.30;0.30;;;;;;;;;;5050618;28;20045;-88
2022/12/28 00:49:35;;;;;;;1.73;1.05;;;;;;;;;;5044734;28;20128;-88
2022/12/28 00:52:03;;;;;;;0.40;0.20;;;;;;;;;;5052078;28;20044;-88
2022/12/28 00:54:32;;;;;;;0.80;0.80;;;;;;;;;;5052736;28;20037;-88
2022/12/28 00:57:00;;;;;;;0.82;0.82;;;;;;;;;;5046689;28;20060;-87
2022/12/28 00:59:28;;;;;;;0.40;0.40;;;;;;;;;;5046741;28;20557;-88
2022/12/28 01:01:58;;;;;;;0.40;0.40;;;;;;;;;;5049525;28;20056;-89
2022/12/28 01:04:27;;;;;;;0.93;0.73;;;;;;;;;;5051658;28;20055;-89
2022/12/28 01:06:55;;;;;;;0.30;0.30;;;;;;;;;;5053434;28;20073;-89
2022/12/28 01:09:24;;;;;;;0.63;0.60;;;;;;;;;;5051826;28;20051;-88
2022/12/28 01:11:53;;;;;;;1.58;0.85;;;;;;;;;;5052330;28;20045;-88
2022/12/28 01:14:22;;;;;;;0.73;0.73;;;;;;;;;;5052270;28;20053;-88
2022/12/28 01:16:50;;;;;;;0.50;0.50;;;;;;;;;;5049800;28;20048;-87
2022/12/28 01:19:22;;;;;;;0.43;0.43;;;;;;;;;;5051846;28;20079;-89
2022/12/28 01:21:51;;;;;;;0.65;0.55;;;;;;;;;;5051581;28;20124;-89
2022/12/28 01:24:19;;;;;;;0.20;0.20;;;;;;;;;;5056058;28;20134;-89
2022/12/28 01:26:48;;;;;;;1.38;0.57;;;;;;;;;;5058716;28;20053;-88
2022/12/28 01:29:16;;;;;;;0.65;0.52;;;;;;;;;;5053603;28;20090;-90
2022/12/28 01:31:44;;;;;;;0.63;0.63;;;;;;;;;;5055989;28;20037;-88
2022/12/28 01:34:13;;;;;;;0.28;0.28;;;;;;;;;;5052363;28;20076;-90
2022/12/28 01:36:43;;;;;;;1.75;0.50;;;;;;;;;;5059558;28;20135;-89
2022/12/28 01:39:11;;;;;;;0.40;0.38;;;;;;;;;;5055664;28;20112;-89
2022/12/28 01:41:40;;;;;;;0.30;0.30;;;;;;;;;;5056163;28;20078;-87
2022/12/28 01:44:27;;;;;;;0.65;0.65;;;;;;;;;;5055170;28;20187;-88
2022/12/28 01:46:57;;;;;;;0.30;0.30;;;;;;;;;;5049090;28;20633;-90
2022/12/28 01:49:29;;;;;;;0.40;0.40;;;;;;;;;;5048863;28;20065;-91
2022/12/28 01:52:01;;;;;;;4.13;0.63;;;;;;;;;;5048839;28;20068;-89
2022/12/28 01:54:31;;;;;;;0.30;0.30;;;;;;;;;;5057025;28;20052;-89
2022/12/28 01:56:59;;;;;;;0.65;0.60;;;;;;;;;;5051075;28;20088;-89
2022/12/28 01:59:29;;;;;;;0.63;0.43;;;;;;;;;;5053149;28;20045;-90
2022/12/28 02:01:58;;;;;;;2.90;0.40;;;;;;;;;;5048432;28;20148;-86
2022/12/28 02:04:27;;;;;;;0.32;0.32;;;;;;;;;;5059758;28;20084;-88
2022/12/28 02:06:56;;;;;;;0.52;0.40;;;;;;;;;;5044284;28;20044;-86
2022/12/28 02:09:28;;;;;;;0.38;0.38;;;;;;;;;;5051832;28;20074;-87
2022/12/28 02:11:57;;;;;;;0.45;0.45;;;;;;;;;;5053483;28;20053;-87
2022/12/28 02:14:25;;;;;;;0.80;0.80;;;;;;;;;;5055378;28;20513;-89
2022/12/28 02:16:54;;;;;;;0.30;0.30;;;;;;;;;;5069004;28;20056;-89
2022/12/28 02:19:37;;;;;;;1.58;0.60;;;;;;;;;;5050208;28;20045;-89
2022/12/28 02:22:15;;;;;;;8.48;0.95;;;;;;;;;;5053753;28;20152;-89
2022/12/28 02:24:58;;;;;;;0.20;0.20;;;;;;;;;;5051419;28;20083;-88
2022/12/28 02:27:49;;;;;;;0.32;0.32;;;;;;;;;;5044671;28;20100;-88
2022/12/28 02:30:19;;;;;;;0.40;0.40;;;;;;;;;;5050980;28;20592;-87
2022/12/28 02:32:54;;;;;;;0.30;0.30;;;;;;;;;;5054371;28;20140;-89
2022/12/28 02:35:25;;;;;;;0.20;0.20;;;;;;;;;;5052846;28;20083;-88
2022/12/28 02:37:56;;;;;;;0.45;0.45;;;;;;;;;;5050965;28;20047;-87
2022/12/28 02:40:27;;;;;;;1.25;1.15;;;;;;;;;;5045531;28;20087;-87
2022/12/28 02:42:55;;;;;;;0.30;0.30;;;;;;;;;;5052581;28;20116;-87
2022/12/28 02:51:13;;;;;;;0.20;0.20;;;;;;;;;;5060284;28;20047;-87
2022/12/28 02:54:00;;;;;;;2.08;0.47;;;;;;;;;;5055351;28;20412;-87
2022/12/28 02:56:33;;;;;;;0.35;0.35;;;;;;;;;;5049302;28;20171;-87
2022/12/28 02:59:16;;;;;;;0.68;0.40;;;;;;;;;;5050595;28;20075;-87
2022/12/28 03:01:54;;;;;;;0.30;0.30;;;;;;;;;;5052453;28;20045;-87
2022/12/28 03:04:27;;;;;;;0.30;0.30;;;;;;;;;;5051690;28;20052;-87
2022/12/28 03:09:47;;;;;;;0.30;0.30;;;;;;;;;;5047876;28;20057;-88
2022/12/28 03:12:18;;;;;;;0.20;0.20;;;;;;;;;;5052613;28;20055;-87
2022/12/28 03:14:48;;;;;;;0.75;0.52;;;;;;;;;;5048360;28;20132;-86
2022/12/28 03:31:19;;;;;;;0.32;0.32;;;;;;;;;;5048075;28;20492;-87
2022/12/28 03:33:50;;;;;;;0.52;0.52;;;;;;;;;;5054936;28;20045;-87
2022/12/28 03:36:23;;;;;;;0.28;0.28;;;;;;;;;;5052342;28;20083;-87
2022/12/28 03:38:55;;;;;;;0.30;0.30;;;;;;;;;;5051710;28;20057;-87
2022/12/28 03:41:27;;;;;;;0.50;0.50;;;;;;;;;;5053446;28;20049;-86
2022/12/28 03:43:58;;;;;;;1.95;0.98;;;;;;;;;;5047992;28;20055;-87
2022/12/28 03:46:29;;;;;;;0.30;0.30;;;;;;;;;;5053956;28;20069;-87
2022/12/28 03:49:00;;;;;;;0.80;0.80;;;;;;;;;;5052428;28;20057;-87
2022/12/28 03:51:29;;;;;;;0.50;0.50;;;;;;;;;;5052921;28;20041;-87
2022/12/28 03:53:58;;;;;;;0.28;0.28;;;;;;;;;;5049253;28;20067;-87
2022/12/28 03:56:27;;;;;;;0.30;0.30;;;;;;;;;;5046047;28;20049;-87
2022/12/28 03:58:56;;;;;;;0.20;0.20;;;;;;;;;;5052434;28;20067;-87
2022/12/28 04:01:24;;;;;;;0.30;0.30;;;;;;;;;;5055381;28;20143;-87
2022/12/28 04:03:53;;;;;;;0.35;0.35;;;;;;;;;;5049400;28;20052;-87
2022/12/28 04:06:23;;;;;;;0.43;0.43;;;;;;;;;;5046615;28;20076;-87
2022/12/28 04:08:51;;;;;;;0.30;0.30;;;;;;;;;;5051371;28;20049;-86
2022/12/28 04:11:19;;;;;;;0.40;0.40;;;;;;;;;;5053431;28;20098;-87
2022/12/28 04:13:48;;;;;;;0.20;0.20;;;;;;;;;;5049461;28;20474;-87
2022/12/28 04:16:16;;;;;;;0.40;0.40;;;;;;;;;;5053204;28;20359;-87
2022/12/28 04:18:45;;;;;;;1.20;0.68;;;;;;;;;;5049193;28;20083;-87
2022/12/28 04:21:14;;;;;;;0.77;0.77;;;;;;;;;;5041597;28;20080;-87
2022/12/28 04:23:44;;;;;;;0.30;0.30;;;;;;;;;;5041824;28;20457;-87
2022/12/28 04:26:13;;;;;;;0.65;0.65;;;;;;;;;;5053663;28;20106;-87
2022/12/28 04:28:42;;;;;;;0.52;0.40;;;;;;;;;;5049737;28;20123;-86
2022/12/28 04:31:12;;;;;;;0.20;0.20;;;;;;;;;;5044184;28;20045;-87
2022/12/28 04:33:40;;;;;;;0.30;0.28;;;;;;;;;;5051759;28;20490;-87
2022/12/28 04:36:10;;;;;;;0.25;0.25;;;;;;;;;;5053683;28;20049;-88
2022/12/28 04:38:39;;;;;;;1.10;0.38;;;;;;;;;;5047864;28;20149;-87
2022/12/28 04:41:10;;;;;;;1.33;0.45;;;;;;;;;;5041733;28;20099;-87
2022/12/28 04:43:39;;;;;;;0.20;0.20;;;;;;;;;;5049307;28;20555;-87
2022/12/28 04:46:08;;;;;;;0.20;0.20;;;;;;;;;;5052615;28;20091;-88
2022/12/28 04:48:37;;;;;;;0.13;0.13;;;;;;;;;;5050410;28;20044;-87
2022/12/28 04:51:09;;;;;;;0.40;0.40;;;;;;;;;;5046204;28;20057;-87
2022/12/28 04:53:38;;;;;;;0.50;0.30;;;;;;;;;;5049624;28;20079;-87
2022/12/28 04:56:07;;;;;;;0.30;0.30;;;;;;;;;;5042555;28;20080;-87
2022/12/28 04:58:37;;;;;;;0.57;0.55;;;;;;;;;;5047675;28;20068;-87
2022/12/28 05:01:06;;;;;;;0.32;0.30;;;;;;;;;;5049160;28;20045;-87
2022/12/28 05:03:34;;;;;;;0.28;0.28;;;;;;;;;;5051297;28;20513;-88
2022/12/28 05:06:03;;;;;;;0.20;0.20;;;;;;;;;;5050293;28;20051;-87
2022/12/28 05:08:31;;;;;;;0.20;0.20;;;;;;;;;;5049965;28;20497;-87
2022/12/28 05:11:00;;;;;;;0.30;0.30;;;;;;;;;;5045814;28;20045;-87
2022/12/28 05:13:29;;;;;;;0.30;0.30;;;;;;;;;;5045589;28;20140;-86
2022/12/28 05:16:02;;;;;;;0.20;0.20;;;;;;;;;;5048331;28;20140;-87
2022/12/28 05:18:31;;;;;;;0.40;0.40;;;;;;;;;;5041398;28;20103;-87
2022/12/28 05:21:00;;;;;;;0.20;0.20;;;;;;;;;;5049746;28;20073;-87
2022/12/28 05:23:29;;;;;;;0.30;0.30;;;;;;;;;;5049157;28;20508;-87
2022/12/28 05:25:58;;;;;;;0.60;0.60;;;;;;;;;;5051791;28;20052;-87
2022/12/28 05:28:26;;;;;;;0.50;0.50;;;;;;;;;;5047151;28;20059;-87
2022/12/28 05:30:59;;;;;;;0.52;0.32;;;;;;;;;;5041158;28;20506;-87
2022/12/28 05:33:30;;;;;;;0.30;0.30;;;;;;;;;;5047693;28;20587;-87
2022/12/28 05:36:03;;;;;;;0.20;0.20;;;;;;;;;;5049100;28;20139;-86
2022/12/28 05:38:31;;;;;;;0.20;0.20;;;;;;;;;;5044031;28;20055;-87
2022/12/28 05:41:04;;;;;;;0.30;0.30;;;;;;;;;;5044749;28;20140;-88
2022/12/28 05:43:33;;;;;;;0.20;0.20;;;;;;;;;;5042229;28;20136;-87
2022/12/28 05:46:03;;;;;;;0.40;0.40;;;;;;;;;;5045682;28;20056;-88
2022/12/28 05:48:33;;;;;;;0.20;0.20;;;;;;;;;;5044318;28;20123;-87
2022/12/28 05:51:02;;;;;;;0.95;0.75;;;;;;;;;;5049324;28;20066;-87
2022/12/28 05:53:31;;;;;;;0.20;0.20;;;;;;;;;;5048476;28;20087;-87
2022/12/28 05:56:03;;;;;;;0.50;0.50;;;;;;;;;;5046300;28;20099;-88
2022/12/28 05:58:35;;;;;;;0.50;0.50;;;;;;;;;;5049044;28;20052;-86
2022/12/28 06:01:04;;;;;;;0.35;0.22;;;;;;;;;;5048599;28;20045;-87
2022/12/28 06:03:34;;;;;;;0.25;0.25;;;;;;;;;;5049401;28;20049;-88
2022/12/28 06:06:03;;;;;;;0.30;0.30;;;;;;;;;;5045877;28;20114;-86
2022/12/28 06:08:32;;;;;;;0.20;0.20;;;;;;;;;;5049509;28;20526;-88
2022/12/28 06:11:01;;;;;;;0.38;0.38;;;;;;;;;;5049118;28;20420;-87
2022/12/28 06:13:29;;;;;;;0.13;0.13;;;;;;;;;;5049839;28;20122;-88
2022/12/28 06:15:58;;;;;;;0.30;0.30;;;;;;;;;;5042627;28;20044;-87
2022/12/28 06:18:29;;;;;;;0.20;0.20;;;;;;;;;;5050515;28;20055;-87
2022/12/28 06:21:03;;;;;;;0.22;0.22;;;;;;;;;;5046192;28;20076;-87
2022/12/28 06:23:32;;;;;;;0.30;0.30;;;;;;;;;;5048508;28;20164;-87
2022/12/28 06:26:01;;;;;;;0.25;0.25;;;;;;;;;;5049007;28;20515;-87
2022/12/28 06:28:29;;;;;;;0.10;0.10;;;;;;;;;;5052651;28;20057;-87
2022/12/28 06:31:05;;;;;;;0.20;0.20;;;;;;;;;;5054551;28;20138;-87
2022/12/28 06:33:33;;;;;;;0.20;0.20;;;;;;;;;;5054570;28;20043;-87
2022/12/28 06:36:03;;;;;;;0.38;0.38;;;;;;;;;;5052336;28;20056;-85
2022/12/28 06:38:33;;;;;;;0.30;0.30;;;;;;;;;;5045782;28;20051;-88
2022/12/28 06:41:05;;;;;;;0.30;0.30;;;;;;;;;;5050317;28;20044;-88
2022/12/28 06:43:42;;;;;;;0.30;0.30;;;;;;;;;;5046213;28;20559;-87
2022/12/28 06:46:11;;;;;;;0.30;0.30;;;;;;;;;;5051233;28;20049;-87
2022/12/28 06:48:40;;;;;;;0.20;0.20;;;;;;;;;;5046428;28;20048;-86
2022/12/28 06:51:12;;;;;;;0.20;0.20;;;;;;;;;;5051366;28;20053;-88
2022/12/28 06:53:40;;;;;;;0.20;0.20;;;;;;;;;;5050449;28;20355;-86
2022/12/28 06:56:11;;;;;;;0.20;0.20;;;;;;;;;;5049710;28;20602;-88
2022/12/28 06:58:39;;;;;;;1.00;0.50;;;;;;;;;;5050282;28;20124;-88
2022/12/28 07:01:08;;;;;;;0.30;0.30;;;;;;;;;;5048253;28;20063;-86
2022/12/28 07:03:37;;;;;;;0.60;0.60;;;;;;;;;;5047358;28;20128;-86
2022/12/28 07:06:06;;;;;;;0.20;0.20;;;;;;;;;;5045948;28;20515;-88
2022/12/28 07:08:36;;;;;;;0.30;0.30;;;;;;;;;;5049987;28;20088;-86
2022/12/28 07:11:05;;;;;;;0.20;0.20;;;;;;;;;;5050716;28;20521;-88
2022/12/28 07:13:34;;;;;;;0.10;0.10;;;;;;;;;;5036033;28;20163;-87
2022/12/28 07:16:03;;;;;;;0.77;0.60;;;;;;;;;;5042230;28;21319;-87
2022/12/28 07:18:32;;;;;;;0.40;0.40;;;;;;;;;;5049023;28;20481;-87
2022/12/28 07:21:01;;;;;;;0.20;0.20;;;;;;;;;;5054064;28;20052;-89
2022/12/28 07:23:30;;;;;;;0.77;0.22;;;;;;;;;;5052704;28;20056;-90
2022/12/28 07:26:04;;;;;;;0.20;0.20;;;;;;;;;;5050338;28;20045;-89
2022/12/28 07:28:33;;;;;;;0.28;0.28;;;;;;;;;;5043758;28;20307;-88
2022/12/28 07:31:05;;;;;;;0.15;0.15;;;;;;;;;;5048577;28;20051;-88
2022/12/28 07:33:34;;;;;;;0.32;0.32;;;;;;;;;;5051209;28;20131;-89
2022/12/28 07:36:02;;;;;;;0.40;0.40;;;;;;;;;;5058155;28;20057;-88
2022/12/28 07:38:31;;;;;;;0.20;0.20;;;;;;;;;;5048405;28;20081;-89
2022/12/28 07:41:03;;;;;;;0.22;0.22;;;;;;;;;;5050940;28;20094;-87
2022/12/28 07:43:31;;;;;;;0.20;0.20;;;;;;;;;;5048226;28;20056;-87
2022/12/28 07:46:01;;;;;;;0.22;0.22;;;;;;;;;;5048146;28;20141;-87
2022/12/28 07:48:30;;;;;;;0.28;0.28;;;;;;;;;;5046355;28;20515;-87
2022/12/28 07:50:59;;;;;;;0.57;0.50;;;;;;;;;;5049054;28;20055;-88
2022/12/28 07:53:27;;;;;;;0.55;0.45;;;;;;;;;;5043501;28;20722;-88
2022/12/28 07:55:57;;;;;;;0.20;0.20;;;;;;;;;;5042422;28;20559;-87
2022/12/28 07:58:27;;;;;;;0.20;0.20;;;;;;;;;;5048656;28;20144;-88
2022/12/28 08:00:55;;;;;;;0.55;0.55;;;;;;;;;;5046529;28;20051;-88
2022/12/28 08:03:24;;;;;;;0.60;0.50;;;;;;;;;;5053503;28;20045;-90
2022/12/28 08:05:52;;;;;;;0.30;0.30;;;;;;;;;;5047897;28;20056;-90
2022/12/28 08:08:21;;;;;;;0.38;0.38;;;;;;;;;;5046161;28;20531;-90
2022/12/28 08:10:49;;;;;;;0.30;0.30;;;;;;;;;;5047787;28;20037;-90
2022/12/28 08:13:18;;;;;;;0.35;0.35;;;;;;;;;;5053959;28;20048;-89
2022/12/28 08:15:55;;;;;;;1.85;0.85;;;;;;;;;;5049868;28;20052;-92
2022/12/28 08:18:23;;;;;;;0.38;0.35;;;;;;;;;;5046239;28;20091;-90
2022/12/28 08:20:52;;;;;;;0.15;0.15;;;;;;;;;;5054485;28;20072;-92
2022/12/28 08:23:21;;;;;;;0.32;0.32;;;;;;;;;;5056313;28;20124;-94
2022/12/28 08:25:49;;;;;;;0.20;0.20;;;;;;;;;;5057653;28;20543;-91
2022/12/28 08:28:18;;;;;;;0.20;0.20;;;;;;;;;;5050404;28;20130;-92
2022/12/28 08:30:55;;;;;;;0.40;0.40;;;;;;;;;;5056520;28;20059;-92
2022/12/28 08:33:24;;;;;;;0.30;0.30;;;;;;;;;;5054834;28;20106;-92
2022/12/28 08:35:52;;;;;;;0.20;0.20;;;;;;;;;;5056478;28;20037;-93
2022/12/28 08:38:21;;;;;;;0.10;0.10;;;;;;;;;;5051384;28;20045;-91
2022/12/28 08:40:55;;;;;;;0.20;0.20;;;;;;;;;;5048625;28;20497;-90
2022/12/28 08:43:25;;;;;;;0.95;0.25;;;;;;;;;;5051059;28;20518;-93
2022/12/28 08:46:02;;;;;;;0.20;0.20;;;;;;;;;;5056941;28;20417;-96
2022/12/28 08:48:30;;;;;;;1.23;0.63;;;;;;;;;;5049486;28;20105;-96
2022/12/28 08:51:02;;;;;;;0.10;0.10;;;;;;;;;;5052943;28;20139;-96
2022/12/28 08:53:32;;;;;;;0.20;0.20;;;;;;;;;;5050905;28;20045;-94
2022/12/28 08:56:04;;;;;;;1.05;0.90;;;;;;;;;;5053709;28;20122;-94
2022/12/28 08:58:34;;;;;;;0.50;0.50;;;;;;;;;;5056896;28;20108;-95
2022/12/28 09:01:11;;;;;;;0.17;0.17;;;;;;;;;;5049331;28;20051;-90
2022/12/28 09:03:41;;;;;;;0.20;0.20;;;;;;;;;;5054722;28;20041;-93
2022/12/28 09:06:10;;;;;;;0.10;0.10;;;;;;;;;;5056281;28;20059;-92
2022/12/28 09:08:39;;;;;;;0.20;0.20;;;;;;;;;;5062064;28;20048;-93
2022/12/28 09:11:11;;;;;;;0.28;0.28;;;;;;;;;;5057031;28;20056;-93
2022/12/28 09:13:40;;;;;;;0.20;0.20;;;;;;;;;;5048665;28;20043;-91
2022/12/28 09:16:11;;;;;;;0.10;0.10;;;;;;;;;;5050589;28;20049;-90
2022/12/28 09:18:40;;;;;;;0.30;0.30;;;;;;;;;;5049073;28;20064;-92
2022/12/28 09:21:10;;;;;;;0.40;0.40;;;;;;;;;;5066230;28;20133;-91
2022/12/28 09:23:39;;;;;;;1.02;0.40;;;;;;;;;;5050391;28;20044;-91
2022/12/28 09:26:08;;;;;;;0.47;0.47;;;;;;;;;;5054288;28;20128;-91
2022/12/28 09:28:37;;;;;;;0.35;0.35;;;;;;;;;;5043607;28;20110;-91
2022/12/28 09:31:06;;;;;;;0.30;0.30;;;;;;;;;;5053835;28;20059;-90
2022/12/28 09:36:44;;;;;;;0.30;0.30;;;;;;;;;;5049406;28;20402;-92
2022/12/28 09:39:15;;;;;;;0.63;0.45;;;;;;;;;;5044960;28;20091;-89
2022/12/28 09:41:47;;;;;;;0.30;0.28;;;;;;;;;;5049702;28;20049;-90
2022/12/28 09:44:24;;;;;;;2.38;0.30;;;;;;;;;;5052449;28;20558;-89
2022/12/28 09:46:57;;;;;;;0.55;0.22;;;;;;;;;;5055360;28;20554;-90
2022/12/28 09:49:31;;;;;;;0.25;0.25;;;;;;;;;;5058446;28;20088;-94
2022/12/28 09:52:05;;;;;;;5.00;0.50;;;;;;;;;;5055285;28;20086;-90
2022/12/28 09:54:33;;;;;;;0.10;0.10;;;;;;;;;;5053404;28;20081;-92
2022/12/28 09:57:02;;;;;;;0.20;0.20;;;;;;;;;;5052816;28;20049;-93
2022/12/28 09:59:33;;;;;;;0.10;0.10;;;;;;;;;;5052566;28;20068;-95
2022/12/28 10:02:07;;;;;;;1.13;0.65;;;;;;;;;;5057011;28;20105;-94
2022/12/28 10:04:42;;;;;;;0.17;0.17;;;;;;;;;;5063713;28;20591;-95
2022/12/28 10:07:16;;;;;;;0.25;0.25;;;;;;;;;;5064317;28;20066;-94
2022/12/28 10:09:46;;;;;;;0.15;0.15;;;;;;;;;;5057519;28;20049;-94
2022/12/28 10:12:20;;;;;;;0.30;0.30;;;;;;;;;;5045930;28;20052;-95
2022/12/28 10:14:49;;;;;;;0.30;0.30;;;;;;;;;;5060498;28;20405;-95
2022/12/28 10:17:21;;;;;;;1.13;0.30;;;;;;;;;;5057624;28;20053;-95
2022/12/28 10:19:55;;;;;;;0.15;0.15;;;;;;;;;;5049428;28;20506;-94
2022/12/28 10:22:25;;;;;;;0.70;0.47;;;;;;;;;;5061427;28;20040;-96
2022/12/28 10:24:54;;;;;;;0.98;0.22;;;;;;;;;;5057697;28;20041;-94
2022/12/28 10:27:31;;;;;;;1.15;0.35;;;;;;;;;;5057234;28;20063;-94
2022/12/28 10:30:01;;;;;;;0.30;0.30;;;;;;;;;;5054944;28;20045;-94
2022/12/28 10:32:48;;;;;;;0.98;0.98;;;;;;;;;;5051151;28;20060;-95
2022/12/28 10:35:29;;;;;;;0.28;0.28;;;;;;;;;;5044601;28;20071;-96
2022/12/28 10:38:04;;;;;;;0.43;0.25;;;;;;;;;;5054085;28;20079;-96
2022/12/28 10:40:34;;;;;;;0.10;0.10;;;;;;;;;;5056317;28;20059;-95
2022/12/28 10:43:03;;;;;;;0.63;0.20;;;;;;;;;;5049138;28;20426;-89
2022/12/28 10:45:37;;;;;;;;;;;;;;;;;;5052245;28;20053;-94
2022/12/28 10:48:09;;;;;;;0.30;0.30;;;;;;;;;;5047932;28;19967;-88
2022/12/28 10:50:40;;;;;;;0.73;0.73;;;;;;;;;;5046431;28;20108;-91
2022/12/28 10:53:19;;;;;;;0.28;0.28;;;;;;;;;;5048042;28;20054;-94
2022/12/28 10:55:48;;;;;;;0.20;0.20;;;;;;;;;;5051308;28;20073;-91
2022/12/28 10:58:20;;;;;;;0.95;0.47;;;;;;;;;;5038029;28;20057;-93
2022/12/28 11:00:59;;;;;;;0.30;0.30;;;;;;;;;;5050407;28;20045;-91
2022/12/28 11:03:29;;;;;;;0.43;0.28;;;;;;;;;;5044935;28;20049;-92
2022/12/28 11:06:13;;;;;;;0.20;0.20;;;;;;;;;;5053495;28;20045;-92
2022/12/28 11:08:43;;;;;;;0.20;0.20;;;;;;;;;;5053754;28;20048;-91
2022/12/28 11:11:22;;;;;;;0.40;0.40;;;;;;;;;;5054919;28;20461;-93
2022/12/28 11:13:52;;;;;;;0.10;0.10;;;;;;;;;;5055942;28;20041;-92
2022/12/28 11:16:21;;;;;;;0.13;0.13;;;;;;;;;;5054051;28;20079;-91
2022/12/28 11:18:51;;;;;;;0.10;0.10;;;;;;;;;;5055496;28;20057;-93
2022/12/28 11:21:22;;;;;;;0.20;0.20;;;;;;;;;;5055522;28;20049;-92
2022/12/28 11:23:52;;;;;;;0.30;0.30;;;;;;;;;;5057799;28;20059;-93
2022/12/28 11:26:21;;;;;;;0.25;0.25;;;;;;;;;;5056885;28;20420;-94
2022/12/28 11:28:50;;;;;;;8.40;0.30;;;;;;;;;;5045523;28;20041;-92
2022/12/28 11:31:23;;;;;;;0.80;0.80;;;;;;;;;;5051544;28;20079;-93
2022/12/28 11:33:53;;;;;;;0.40;0.20;;;;;;;;;;5056233;28;20055;-92
2022/12/28 11:36:24;;;;;;;0.10;0.10;;;;;;;;;;5055511;28;20059;-91
2022/12/28 11:38:55;;;;;;;0.15;0.15;;;;;;;;;;5044332;28;20193;-92
2022/12/28 11:41:49;;;;;;;0.20;0.20;;;;;;;;;;5054345;28;20049;-89
2022/12/28 11:44:51;;;;;;;1.02;0.30;;;;;;;;;;5043341;28;20072;-92
2022/12/28 11:47:24;;;;;;;0.80;0.80;;;;;;;;;;5054058;28;20072;-95
2022/12/28 11:49:56;;;;;;;0.10;0.10;;;;;;;;;;5053494;28;20511;-91
2022/12/28 11:52:45;;;;;;;0.50;0.50;;;;;;;;;;5054806;28;20075;-92
2022/12/28 11:55:31;;;;;;;0.50;0.50;;;;;;;;;;5046737;28;20421;-93
2022/12/28 11:58:21;;;;;;;0.32;0.17;;;;;;;;;;5042854;28;20139;-93
2022/12/28 12:00:50;;;;;;;0.10;0.10;;;;;;;;;;5055203;28;20087;-92
2022/12/28 12:03:19;;;;;;;1.08;0.30;;;;;;;;;;5046655;28;20152;-92
2022/12/28 12:05:51;;;;;;;0.20;0.20;;;;;;;;;;5052073;28;20049;-91
2022/12/28 12:08:38;;;;;;;0.20;0.20;;;;;;;;;;5053863;28;20048;-92
2022/12/28 12:11:31;;;;;;;0.17;0.17;;;;;;;;;;5050839;28;20053;-93
2022/12/28 12:14:02;;;;;;;0.28;0.25;;;;;;;;;;5054986;28;20398;-92
2022/12/28 12:16:34;;;;;;;0.17;0.17;;;;;;;;;;5051168;28;20077;-91
2022/12/28 12:19:05;;;;;;;0.40;0.20;;;;;;;;;;5052890;28;20190;-93
2022/12/28 12:21:36;;;;;;;0.10;0.10;;;;;;;;;;5053100;28;20045;-95
2022/12/28 12:24:17;;;;;;;1.08;0.50;;;;;;;;;;5048485;28;20058;-91
2022/12/28 12:26:48;;;;;;;0.20;0.20;;;;;;;;;;5053940;28;20140;-92
2022/12/28 12:29:20;;;;;;;0.20;0.20;;;;;;;;;;5047729;28;20501;-92
2022/12/28 12:31:50;;;;;;;1.33;0.47;;;;;;;;;;5053642;28;20495;-89
2022/12/28 12:34:25;;;;;;;0.45;0.43;;;;;;;;;;5051905;28;20564;-90
2022/12/28 12:37:14;;;;;;;0.30;0.30;;;;;;;;;;5049831;28;20151;-93
2022/12/28 12:40:03;;;;;;;0.80;0.30;;;;;;;;;;5048816;28;20063;-91
2022/12/28 12:42:35;;;;;;;0.30;0.30;;;;;;;;;;5064315;28;20048;-90
2022/12/28 12:45:12;;;;;;;1.95;0.43;;;;;;;;;;5057583;28;20479;-90
2022/12/28 12:47:54;;;;;;;0.30;0.30;;;;;;;;;;5047501;28;20054;-95
2022/12/28 12:50:40;;;;;;;0.30;0.30;;;;;;;;;;5052333;28;20057;-91
2022/12/28 12:53:19;;;;;;;0.30;0.30;;;;;;;;;;5050758;28;20061;-91
2022/12/28 12:55:56;;;;;;;0.30;0.30;;;;;;;;;;5048631;28;20486;-90
2022/12/28 12:58:27;;;;;;;3.20;0.50;;;;;;;;;;5035209;28;20172;-92
2022/12/28 13:01:05;;;;;;;0.10;0.10;;;;;;;;;;5034613;28;20079;-92
2022/12/28 13:03:37;;;;;;;0.10;0.10;;;;;;;;;;5034779;28;20413;-91
2022/12/28 13:06:07;;;;;;;0.65;0.20;;;;;;;;;;5033252;28;20065;-91
2022/12/28 13:08:37;;;;;;;3.50;0.60;;;;;;;;;;5027010;28;20189;-91
2022/12/28 13:11:08;;;;;;;0.10;0.10;;;;;;;;;;5035764;28;20103;-91
2022/12/28 13:13:38;;;;;;;0.35;0.20;;;;;;;;;;5037820;28;20121;-94
2022/12/28 13:16:11;;;;;;;0.20;0.20;;;;;;;;;;5030747;28;20432;-92
2022/12/28 13:18:39;;;;;;;0.10;0.10;;;;;;;;;;5033892;28;20301;-93
2022/12/28 13:21:19;;;;;;;0.55;0.30;;;;;;;;;;5033412;28;20080;-93
2022/12/28 13:23:47;;;;;;;0.20;0.20;;;;;;;;;;5029943;28;20104;-92
2022/12/28 13:26:16;;;;;;;0.20;0.20;;;;;;;;;;5031318;28;20466;-93
2022/12/28 13:28:48;;;;;;;0.38;0.20;;;;;;;;;;5032316;28;20049;-92
2022/12/28 13:31:19;;;;;;;0.20;0.20;;;;;;;;;;5033014;28;20122;-91
2022/12/28 13:33:55;;;;;;;0.20;0.10;;;;;;;;;;5030250;28;20080;-92
2022/12/28 13:36:23;;;;;;;0.55;0.35;;;;;;;;;;5054267;28;20055;-92
2022/12/28 13:39:03;;;;;;;0.55;0.10;;;;;;;;;;5037532;28;20049;-93
2022/12/28 13:41:33;;;;;;;0.10;0.10;;;;;;;;;;5026847;28;20092;-90
2022/12/28 13:44:16;;;;;;;1.67;0.30;;;;;;;;;;5014866;28;20140;-91
2022/12/28 13:46:49;;;;;;;0.30;0.30;;;;;;;;;;5032810;28;20095;-91
2022/12/28 13:49:18;;;;;;;0.10;0.10;;;;;;;;;;5029009;28;20109;-91
2022/12/28 13:51:47;;;;;;;0.20;0.20;;;;;;;;;;5030525;28;20088;-89
2022/12/28 13:54:23;;;;;;;1.25;0.30;;;;;;;;;;5030876;28;20047;-91
2022/12/28 13:56:52;;;;;;;0.10;0.10;;;;;;;;;;5031088;28;20096;-90
2022/12/28 13:59:41;;;;;;;1.33;0.43;;;;;;;;;;5051563;28;20045;-91
2022/12/28 14:02:15;;;;;;;0.15;0.15;;;;;;;;;;5048814;28;20059;-89
2022/12/28 14:04:44;;;;;;;0.20;0.20;;;;;;;;;;5051601;28;20049;-91
2022/12/28 14:07:23;;;;;;;0.10;0.10;;;;;;;;;;5051722;28;20045;-90
2022/12/28 14:09:51;;;;;;;0.17;0.17;;;;;;;;;;5049282;28;20283;-92
2022/12/28 14:12:20;;;;;;;0.10;0.10;;;;;;;;;;5049918;28;20081;-90
2022/12/28 14:14:49;;;;;;;0.10;0.10;;;;;;;;;;5051710;28;20140;-90
2022/12/28 14:17:19;;;;;;;0.20;0.20;;;;;;;;;;5048559;28;20084;-91
2022/12/28 14:19:48;;;;;;;0.20;0.20;;;;;;;;;;5050907;28;20103;-90
2022/12/28 14:22:27;;;;;;;0.13;0.13;;;;;;;;;;5052906;28;20051;-92
2022/12/28 14:25:03;;;;;;;0.10;0.10;;;;;;;;;;5052320;28;20037;-92
2022/12/28 14:27:32;;;;;;;0.10;0.10;;;;;;;;;;5052186;28;20049;-92
2022/12/28 14:30:04;;;;;;;0.10;0.10;;;;;;;;;;5049338;28;20083;-91
2022/12/28 14:32:34;;;;;;;0.10;0.10;;;;;;;;;;5050141;28;20052;-92
2022/12/28 14:35:16;;;;;;;0.10;0.10;;;;;;;;;;5040241;28;20056;-92
2022/12/28 14:37:47;;;;;;;5.43;0.20;;;;;;;;;;5050257;28;20053;-91
2022/12/28 14:40:20;;;;;;;0.28;0.28;;;;;;;;;;5039824;28;20041;-92
2022/12/28 14:42:50;;;;;;;0.10;0.10;;;;;;;;;;5050726;28;20210;-93
2022/12/28 14:45:22;;;;;;;0.10;0.10;;;;;;;;;;5051602;28;20057;-91
2022/12/28 14:47:56;;;;;;;0.10;0.10;;;;;;;;;;5052293;28;20111;-91
2022/12/28 14:50:27;;;;;;;0.10;0.10;;;;;;;;;;5053121;28;20056;-91
2022/12/28 14:53:02;;;;;;;0.40;0.40;;;;;;;;;;5050792;28;20154;-92
2022/12/28 14:55:32;;;;;;;0.10;0.10;;;;;;;;;;5053023;28;20104;-92
2022/12/28 14:58:03;;;;;;;1.45;0.30;;;;;;;;;;5052310;28;20140;-92
2022/12/28 15:00:32;;;;;;;0.10;0.10;;;;;;;;;;5052827;28;20081;-91
2022/12/28 15:03:14;;;;;;;0.20;0.20;;;;;;;;;;5054249;28;20044;-91
2022/12/28 15:05:45;;;;;;;0.73;0.73;;;;;;;;;;5054980;28;20447;-91
2022/12/28 15:08:14;;;;;;;0.00;0.00;;;;;;;;;;5050953;28;20130;-93
2022/12/28 15:10:44;;;;;;;0.15;0.10;;;;;;;;;;5048707;28;20056;-92
2022/12/28 15:13:12;;;;;;;0.10;0.10;;;;;;;;;;5045382;28;20045;-90
2022/12/28 15:15:40;;;;;;;1.13;0.20;;;;;;;;;;5048459;28;20131;-93
2022/12/28 15:18:09;;;;;;;0.40;0.28;;;;;;;;;;5050980;28;20059;-91
2022/12/28 15:20:39;;;;;;;0.10;0.10;;;;;;;;;;5054158;28;20040;-90
2022/12/28 15:23:08;;;;;;;0.10;0.10;;;;;;;;;;5054524;28;20061;-90
2022/12/28 15:25:36;;;;;;;0.20;0.20;;;;;;;;;;5051123;28;20076;-91
2022/12/28 15:28:05;;;;;;;0.20;0.20;;;;;;;;;;5053199;28;20059;-90
2022/12/28 15:30:33;;;;;;;0.20;0.20;;;;;;;;;;5051466;28;20057;-89
2022/12/28 15:33:02;;;;;;;0.10;0.10;;;;;;;;;;5052539;28;20128;-88
2022/12/28 15:35:31;;;;;;;0.10;0.10;;;;;;;;;;5048885;28;20128;-89